createdAt,value
2019-02-10T00:00:37.207Z,371
2019-02-10T00:01:44.404Z,371
2019-02-10T00:02:51.596Z,370
2019-02-10T00:03:58.799Z,370
2019-02-10T00:05:05.991Z,370
2019-02-10T00:06:13.186Z,369
2019-02-10T00:07:20.381Z,370
2019-02-10T00:08:27.585Z,370
2019-02-10T00:09:34.786Z,370
2019-02-10T00:10:41.982Z,371
2019-02-10T00:11:49.174Z,371
2019-02-10T00:12:56.367Z,372
2019-02-10T00:14:03.288Z,374
2019-02-10T00:15:10.490Z,375
2019-02-10T00:16:17.689Z,375
2019-02-10T00:17:24.614Z,376
2019-02-10T00:18:31.813Z,376
2019-02-10T00:19:39.004Z,376
2019-02-10T00:20:45.925Z,376
2019-02-10T00:21:53.122Z,376
2019-02-10T00:23:00.319Z,376
2019-02-10T00:24:07.239Z,374
2019-02-10T00:25:14.160Z,374
2019-02-10T00:26:21.351Z,373
2019-02-10T00:27:28.549Z,373
2019-02-10T00:28:35.739Z,373
2019-02-10T00:29:42.933Z,371
2019-02-10T00:30:50.126Z,371
2019-02-10T00:31:57.329Z,372
2019-02-10T00:33:04.515Z,372
2019-02-10T00:34:11.436Z,371
2019-02-10T00:35:18.632Z,370
2019-02-10T00:36:34.239Z,369
2019-02-10T00:37:41.430Z,370
2019-02-10T00:38:48.627Z,369
2019-02-10T00:39:55.823Z,369
2019-02-10T00:41:02.742Z,370
2019-02-10T00:42:09.678Z,370
2019-02-10T00:43:17.078Z,370
2019-02-10T00:44:24.272Z,371
2019-02-10T00:45:31.471Z,372
2019-02-10T00:46:38.666Z,372
2019-02-10T00:47:45.859Z,372
2019-02-10T00:48:53.060Z,373
2019-02-10T00:50:00.251Z,373
2019-02-10T00:51:07.441Z,373
2019-02-10T00:52:14.640Z,374
2019-02-10T00:53:21.553Z,372
2019-02-10T00:54:28.744Z,372
2019-02-10T00:55:35.941Z,373
2019-02-10T00:56:42.862Z,373
2019-02-10T00:57:50.053Z,373
2019-02-10T00:58:56.974Z,372
2019-02-10T01:00:04.169Z,373
2019-02-10T01:01:11.085Z,373
2019-02-10T01:02:18.289Z,373
2019-02-10T01:03:25.485Z,374
2019-02-10T01:04:32.687Z,374
2019-02-10T01:05:39.878Z,375
2019-02-10T01:06:47.077Z,375
2019-02-10T01:07:54.272Z,376
2019-02-10T01:09:01.195Z,376
2019-02-10T01:10:08.116Z,376
2019-02-10T01:11:15.308Z,375
2019-02-10T01:12:22.516Z,375
2019-02-10T01:13:29.719Z,375
2019-02-10T01:14:36.919Z,374
2019-02-10T01:15:44.111Z,374
2019-02-10T01:16:51.304Z,374
2019-02-10T01:17:58.220Z,374
2019-02-10T01:19:05.142Z,375
2019-02-10T01:20:12.335Z,375
2019-02-10T01:21:19.533Z,376
2019-02-10T01:22:26.771Z,375
2019-02-10T01:23:33.967Z,377
2019-02-10T01:24:41.159Z,376
2019-02-10T01:25:48.353Z,376
2019-02-10T01:26:55.543Z,376
2019-02-10T01:28:02.460Z,376
2019-02-10T01:29:09.653Z,376
2019-02-10T01:30:16.845Z,376
2019-02-10T01:31:24.849Z,376
2019-02-10T01:32:31.225Z,376
2019-02-10T01:33:38.418Z,376
2019-02-10T01:34:45.611Z,377
2019-02-10T01:35:52.263Z,376
2019-02-10T01:36:59.181Z,376
2019-02-10T01:38:06.375Z,376
2019-02-10T01:39:13.584Z,374
2019-02-10T01:40:20.765Z,373
2019-02-10T01:41:27.956Z,372
2019-02-10T01:42:35.149Z,371
2019-02-10T01:43:42.068Z,371
2019-02-10T01:44:48.995Z,372
2019-02-10T01:45:56.185Z,373
2019-02-10T01:47:03.380Z,373
2019-02-10T01:48:10.572Z,374
2019-02-10T01:49:17.766Z,374
2019-02-10T01:50:24.956Z,374
2019-02-10T01:51:32.150Z,375
2019-02-10T01:52:39.072Z,375
2019-02-10T01:53:46.267Z,376
2019-02-10T01:54:53.460Z,377
2019-02-10T01:56:00.667Z,377
2019-02-10T01:57:07.858Z,378
2019-02-10T01:58:15.049Z,377
2019-02-10T01:59:22.241Z,377
2019-02-10T02:00:29.437Z,377
2019-02-10T02:01:36.629Z,377
2019-02-10T02:02:43.831Z,378
2019-02-10T02:03:51.025Z,378
2019-02-10T02:04:58.219Z,378
2019-02-10T02:06:05.411Z,377
2019-02-10T02:07:12.334Z,377
2019-02-10T02:08:19.259Z,378
2019-02-10T02:09:26.455Z,379
2019-02-10T02:10:33.645Z,378
2019-02-10T02:11:40.561Z,378
2019-02-10T02:12:47.755Z,378
2019-02-10T02:13:54.677Z,378
2019-02-10T02:15:01.881Z,377
2019-02-10T02:16:08.793Z,378
2019-02-10T02:17:15.726Z,378
2019-02-10T02:18:22.924Z,378
2019-02-10T02:19:30.120Z,378
2019-02-10T02:20:37.313Z,378
2019-02-10T02:21:44.231Z,378
2019-02-10T02:22:51.153Z,378
2019-02-10T02:23:58.070Z,378
2019-02-10T02:25:04.988Z,378
2019-02-10T02:26:12.184Z,378
2019-02-10T02:27:19.381Z,379
2019-02-10T02:28:26.024Z,378
2019-02-10T02:29:33.232Z,378
2019-02-10T02:30:40.156Z,378
2019-02-10T02:31:47.054Z,378
2019-02-10T02:32:53.975Z,377
2019-02-10T02:34:01.173Z,378
2019-02-10T02:35:07.831Z,377
2019-02-10T02:36:14.481Z,375
2019-02-10T02:37:21.673Z,374
2019-02-10T02:38:28.873Z,373
2019-02-10T02:39:35.794Z,372
2019-02-10T02:40:42.720Z,373
2019-02-10T02:41:49.642Z,372
2019-02-10T02:42:57.041Z,372
2019-02-10T02:44:04.241Z,372
2019-02-10T02:45:11.164Z,372
2019-02-10T02:46:18.363Z,372
2019-02-10T02:47:25.283Z,373
2019-02-10T02:48:32.472Z,373
2019-02-10T02:49:39.395Z,373
2019-02-10T02:50:46.310Z,372
2019-02-10T02:51:52.972Z,372
2019-02-10T02:53:00.162Z,372
2019-02-10T02:54:07.361Z,372
2019-02-10T02:55:14.543Z,371
2019-02-10T02:56:21.738Z,372
2019-02-10T02:57:28.931Z,371
2019-02-10T02:58:36.124Z,372
2019-02-10T02:59:43.042Z,373
2019-02-10T03:00:49.998Z,372
2019-02-10T03:01:57.197Z,372
2019-02-10T03:03:04.391Z,372
2019-02-10T03:04:11.582Z,372
2019-02-10T03:05:18.783Z,371
2019-02-10T03:06:25.971Z,372
2019-02-10T03:07:33.167Z,371
2019-02-10T03:08:40.358Z,372
2019-02-10T03:09:47.275Z,372
2019-02-10T23:00:06.421Z,406
2019-02-10T23:01:13.620Z,399
2019-02-10T23:02:20.832Z,398
2019-02-10T23:03:27.747Z,397
2019-02-10T23:04:34.669Z,397
2019-02-10T23:05:41.878Z,396
2019-02-10T23:06:48.798Z,395
2019-02-10T23:07:56.005Z,397
2019-02-10T23:09:03.201Z,396
2019-02-10T23:10:10.607Z,396
2019-02-10T23:11:17.800Z,396
2019-02-10T23:12:24.995Z,396
2019-02-10T23:13:32.196Z,395
2019-02-10T23:14:39.122Z,397
2019-02-10T23:15:46.322Z,396
2019-02-10T23:16:53.242Z,396
2019-02-10T23:18:00.442Z,395
2019-02-10T23:19:07.642Z,395
2019-02-10T23:20:14.836Z,394
2019-02-10T23:21:22.031Z,395
2019-02-10T23:22:29.229Z,395
2019-02-10T23:23:36.159Z,395
2019-02-10T23:24:43.359Z,395
2019-02-10T23:25:50.284Z,395
2019-02-10T23:26:57.483Z,395
2019-02-10T23:28:04.402Z,396
2019-02-10T23:29:11.324Z,394
2019-02-10T23:30:18.524Z,394
2019-02-10T23:31:25.444Z,395
2019-02-10T23:32:32.373Z,395
2019-02-10T23:33:39.303Z,402
2019-02-10T23:34:46.494Z,402
2019-02-10T23:35:53.694Z,402
2019-02-10T23:37:00.889Z,405
2019-02-10T23:38:07.816Z,407
2019-02-10T23:39:14.738Z,409
2019-02-10T23:40:21.940Z,408
2019-02-10T23:41:28.863Z,409
2019-02-10T23:42:35.790Z,410
2019-02-10T23:43:42.989Z,408
2019-02-10T23:44:49.634Z,407
2019-02-10T23:45:56.555Z,407
2019-02-10T23:47:03.747Z,406
2019-02-10T23:48:10.947Z,407
2019-02-10T23:49:18.142Z,406
2019-02-10T23:50:25.341Z,405
2019-02-10T23:51:32.288Z,406
2019-02-10T23:52:39.487Z,406
2019-02-10T23:53:46.679Z,407
2019-02-10T23:54:53.887Z,406
2019-02-10T23:56:01.086Z,408
2019-02-10T23:57:08.280Z,408
2019-02-10T23:58:15.477Z,409
2019-02-10T23:59:22.675Z,408
